sensor_id;sensor_type;location;lat;lon;timestamp;P1;durP1;ratioP1;P2;durP2;ratioP2
22983;SDS011;11658;48.908;9.140;2022-12-13T04:02:17;14.00;;;9.57;;
22983;SDS011;11658;48.908;9.140;2022-12-13T04:04:43;16.67;;;10.30;;
22983;SDS011;11658;48.908;9.140;2022-12-13T04:07:10;15.57;;;10.00;;
22983;SDS011;11658;48.908;9.140;2022-12-13T04:09:49;17.20;;;10.37;;
22983;SDS011;11658;48.908;9.140;2022-12-13T04:12:27;14.33;;;9.67;;
22983;SDS011;11658;48.908;9.140;2022-12-13T04:15:11;14.67;;;10.00;;
22983;SDS011;11658;48.908;9.140;2022-12-13T04:17:37;16.50;;;10.13;;
22983;SDS011;11658;48.908;9.140;2022-12-13T04:20:02;17.00;;;10.80;;
22983;SDS011;11658;48.908;9.140;2022-12-13T04:22:28;15.90;;;10.77;;
22983;SDS011;11658;48.908;9.140;2022-12-13T04:24:54;18.13;;;11.60;;
22983;SDS011;11658;48.908;9.140;2022-12-13T04:27:19;16.37;;;11.20;;
22983;SDS011;11658;48.908;9.140;2022-12-13T04:29:45;17.67;;;12.00;;
22983;SDS011;11658;48.908;9.140;2022-12-13T04:32:10;21.60;;;13.63;;
22983;SDS011;11658;48.908;9.140;2022-12-13T04:34:36;16.77;;;11.50;;
22983;SDS011;11658;48.908;9.140;2022-12-13T04:37:01;16.83;;;12.27;;
22983;SDS011;11658;48.908;9.140;2022-12-13T04:39:27;18.27;;;11.30;;
22983;SDS011;11658;48.908;9.140;2022-12-13T04:41:52;18.53;;;11.50;;
22983;SDS011;11658;48.908;9.140;2022-12-13T04:44:18;17.23;;;11.53;;
22983;SDS011;11658;48.908;9.140;2022-12-13T04:46:44;18.33;;;11.20;;
22983;SDS011;11658;48.908;9.140;2022-12-13T04:49:09;16.87;;;10.70;;
22983;SDS011;11658;48.908;9.140;2022-12-13T04:51:35;16.40;;;10.67;;
22983;SDS011;11658;48.908;9.140;2022-12-13T04:54:00;17.47;;;10.93;;
22983;SDS011;11658;48.908;9.140;2022-12-13T04:56:26;17.10;;;11.23;;
22983;SDS011;11658;48.908;9.140;2022-12-13T04:58:52;17.87;;;11.63;;
22983;SDS011;11658;48.908;9.140;2022-12-13T05:01:17;15.97;;;10.73;;
22983;SDS011;11658;48.908;9.140;2022-12-13T05:03:43;15.70;;;10.87;;
22983;SDS011;11658;48.908;9.140;2022-12-13T05:06:09;15.57;;;10.43;;
22983;SDS011;11658;48.908;9.140;2022-12-13T05:08:37;16.73;;;12.03;;
22983;SDS011;11658;48.908;9.140;2022-12-13T05:11:03;17.67;;;10.97;;
22983;SDS011;11658;48.908;9.140;2022-12-13T05:13:30;18.40;;;11.63;;
22983;SDS011;11658;48.908;9.140;2022-12-13T05:15:56;19.53;;;12.40;;
22983;SDS011;11658;48.908;9.140;2022-12-13T05:18:23;19.83;;;12.90;;
22983;SDS011;11658;48.908;9.140;2022-12-13T05:20:49;18.67;;;11.83;;
22983;SDS011;11658;48.908;9.140;2022-12-13T05:23:18;16.53;;;11.23;;
22983;SDS011;11658;48.908;9.140;2022-12-13T05:25:45;15.33;;;10.40;;
22983;SDS011;11658;48.908;9.140;2022-12-13T05:28:11;20.63;;;13.23;;
22983;SDS011;11658;48.908;9.140;2022-12-13T05:30:37;16.20;;;11.03;;
22983;SDS011;11658;48.908;9.140;2022-12-13T05:33:03;14.70;;;10.57;;
22983;SDS011;11658;48.908;9.140;2022-12-13T05:35:29;17.27;;;10.60;;
22983;SDS011;11658;48.908;9.140;2022-12-13T05:37:54;16.50;;;10.60;;
22983;SDS011;11658;48.908;9.140;2022-12-13T05:40:23;15.53;;;10.10;;
22983;SDS011;11658;48.908;9.140;2022-12-13T05:42:50;17.23;;;10.67;;
22983;SDS011;11658;48.908;9.140;2022-12-13T05:45:17;15.37;;;9.87;;
22983;SDS011;11658;48.908;9.140;2022-12-13T05:47:43;15.83;;;10.90;;
22983;SDS011;11658;48.908;9.140;2022-12-13T05:50:10;15.83;;;11.27;;
22983;SDS011;11658;48.908;9.140;2022-12-13T05:52:36;20.77;;;11.57;;
22983;SDS011;11658;48.908;9.140;2022-12-13T05:55:02;16.60;;;10.57;;
22983;SDS011;11658;48.908;9.140;2022-12-13T05:57:28;20.33;;;10.97;;
22983;SDS011;11658;48.908;9.140;2022-12-13T05:59:53;20.67;;;11.73;;
22983;SDS011;11658;48.908;9.140;2022-12-13T06:02:19;18.10;;;11.60;;
22983;SDS011;11658;48.908;9.140;2022-12-13T06:04:45;15.70;;;10.03;;
22983;SDS011;11658;48.908;9.140;2022-12-13T06:07:11;19.80;;;11.23;;
22983;SDS011;11658;48.908;9.140;2022-12-13T06:09:36;16.07;;;10.83;;
22983;SDS011;11658;48.908;9.140;2022-12-13T06:12:02;17.40;;;10.67;;
22983;SDS011;11658;48.908;9.140;2022-12-13T06:14:28;16.13;;;10.60;;
22983;SDS011;11658;48.908;9.140;2022-12-13T06:16:54;15.67;;;10.53;;
22983;SDS011;11658;48.908;9.140;2022-12-13T06:19:20;14.30;;;10.20;;
22983;SDS011;11658;48.908;9.140;2022-12-13T06:21:46;16.80;;;10.50;;
22983;SDS011;11658;48.908;9.140;2022-12-13T06:24:14;14.97;;;9.83;;
22983;SDS011;11658;48.908;9.140;2022-12-13T06:26:41;14.73;;;10.30;;
22983;SDS011;11658;48.908;9.140;2022-12-13T06:29:06;14.30;;;9.87;;
22983;SDS011;11658;48.908;9.140;2022-12-13T06:31:32;17.53;;;10.57;;
22983;SDS011;11658;48.908;9.140;2022-12-13T06:34:01;14.93;;;9.77;;
22983;SDS011;11658;48.908;9.140;2022-12-13T06:36:28;16.93;;;10.53;;
22983;SDS011;11658;48.908;9.140;2022-12-13T06:38:53;18.70;;;12.23;;
22983;SDS011;11658;48.908;9.140;2022-12-13T06:41:19;21.67;;;12.60;;
22983;SDS011;11658;48.908;9.140;2022-12-13T06:43:45;18.47;;;12.20;;
22983;SDS011;11658;48.908;9.140;2022-12-13T06:46:12;17.20;;;11.37;;
22983;SDS011;11658;48.908;9.140;2022-12-13T06:48:38;18.00;;;11.20;;
22983;SDS011;11658;48.908;9.140;2022-12-13T06:51:05;17.60;;;11.30;;
22983;SDS011;11658;48.908;9.140;2022-12-13T06:53:31;17.90;;;10.67;;
22983;SDS011;11658;48.908;9.140;2022-12-13T06:56:02;16.33;;;10.70;;
22983;SDS011;11658;48.908;9.140;2022-12-13T06:58:29;16.93;;;10.30;;
22983;SDS011;11658;48.908;9.140;2022-12-13T07:01:02;16.40;;;10.33;;
22983;SDS011;11658;48.908;9.140;2022-12-13T07:03:29;16.50;;;10.90;;
22983;SDS011;11658;48.908;9.140;2022-12-13T07:05:56;18.83;;;10.87;;
22983;SDS011;11658;48.908;9.140;2022-12-13T07:08:23;17.63;;;10.83;;
22983;SDS011;11658;48.908;9.140;2022-12-13T07:10:48;17.27;;;10.80;;
22983;SDS011;11658;48.908;9.140;2022-12-13T07:13:15;16.73;;;10.93;;
22983;SDS011;11658;48.908;9.140;2022-12-13T07:15:40;17.23;;;9.93;;
22983;SDS011;11658;48.908;9.140;2022-12-13T07:18:06;20.60;;;11.93;;
22983;SDS011;11658;48.908;9.140;2022-12-13T07:20:32;15.40;;;10.83;;
22983;SDS011;11658;48.908;9.140;2022-12-13T07:22:57;17.77;;;11.70;;
22983;SDS011;11658;48.908;9.140;2022-12-13T07:25:23;18.27;;;13.03;;
22983;SDS011;11658;48.908;9.140;2022-12-13T07:27:54;18.43;;;11.97;;
22983;SDS011;11658;48.908;9.140;2022-12-13T07:30:20;20.00;;;12.87;;
22983;SDS011;11658;48.908;9.140;2022-12-13T07:32:46;17.80;;;11.90;;
22983;SDS011;11658;48.908;9.140;2022-12-13T07:35:11;16.97;;;11.90;;
22983;SDS011;11658;48.908;9.140;2022-12-13T07:37:37;17.30;;;10.47;;
22983;SDS011;11658;48.908;9.140;2022-12-13T07:40:03;16.97;;;11.43;;
22983;SDS011;11658;48.908;9.140;2022-12-13T07:42:28;21.37;;;10.80;;
22983;SDS011;11658;48.908;9.140;2022-12-13T07:44:54;14.23;;;10.37;;
22983;SDS011;11658;48.908;9.140;2022-12-13T07:47:20;16.53;;;10.77;;
22983;SDS011;11658;48.908;9.140;2022-12-13T07:49:45;17.13;;;10.50;;
22983;SDS011;11658;48.908;9.140;2022-12-13T07:52:11;16.70;;;10.50;;
22983;SDS011;11658;48.908;9.140;2022-12-13T07:54:36;18.57;;;11.50;;
22983;SDS011;11658;48.908;9.140;2022-12-13T07:57:02;14.77;;;10.43;;
22983;SDS011;11658;48.908;9.140;2022-12-13T07:59:28;15.83;;;10.30;;
22983;SDS011;11658;48.908;9.140;2022-12-13T08:01:53;16.37;;;10.00;;
22983;SDS011;11658;48.908;9.140;2022-12-13T08:04:19;16.70;;;9.80;;
22983;SDS011;11658;48.908;9.140;2022-12-13T08:06:44;13.33;;;9.43;;
22983;SDS011;11658;48.908;9.140;2022-12-13T08:09:10;14.60;;;9.97;;
22983;SDS011;11658;48.908;9.140;2022-12-13T08:11:36;14.17;;;9.43;;
22983;SDS011;11658;48.908;9.140;2022-12-13T08:14:01;14.70;;;9.53;;
22983;SDS011;11658;48.908;9.140;2022-12-13T08:16:27;14.93;;;9.63;;
22983;SDS011;11658;48.908;9.140;2022-12-13T08:18:53;14.47;;;10.47;;
22983;SDS011;11658;48.908;9.140;2022-12-13T08:21:18;14.10;;;9.70;;
22983;SDS011;11658;48.908;9.140;2022-12-13T08:23:44;15.43;;;10.57;;
22983;SDS011;11658;48.908;9.140;2022-12-13T08:26:10;16.13;;;10.20;;
22983;SDS011;11658;48.908;9.140;2022-12-13T08:28:35;19.27;;;11.70;;
22983;SDS011;11658;48.908;9.140;2022-12-13T08:31:06;15.57;;;10.40;;
22983;SDS011;11658;48.908;9.140;2022-12-13T08:33:35;17.37;;;11.23;;
22983;SDS011;11658;48.908;9.140;2022-12-13T08:36:10;17.50;;;10.77;;
22983;SDS011;11658;48.908;9.140;2022-12-13T08:38:39;16.97;;;10.17;;
22983;SDS011;11658;48.908;9.140;2022-12-13T08:41:05;13.57;;;9.80;;
22983;SDS011;11658;48.908;9.140;2022-12-13T08:43:32;17.90;;;10.90;;
22983;SDS011;11658;48.908;9.140;2022-12-13T08:45:58;13.37;;;9.60;;
22983;SDS011;11658;48.908;9.140;2022-12-13T08:48:30;16.40;;;9.87;;
22983;SDS011;11658;48.908;9.140;2022-12-13T08:50:59;15.80;;;10.90;;
22983;SDS011;11658;48.908;9.140;2022-12-13T08:53:30;14.13;;;10.37;;
22983;SDS011;11658;48.908;9.140;2022-12-13T08:55:58;15.97;;;11.03;;
22983;SDS011;11658;48.908;9.140;2022-12-13T08:58:28;13.23;;;9.97;;
22983;SDS011;11658;48.908;9.140;2022-12-13T09:00:55;14.67;;;9.90;;
22983;SDS011;11658;48.908;9.140;2022-12-13T09:03:21;14.13;;;9.57;;
22983;SDS011;11658;48.908;9.140;2022-12-13T09:05:47;14.63;;;9.87;;
22983;SDS011;11658;48.908;9.140;2022-12-13T09:08:12;15.57;;;10.00;;
22983;SDS011;11658;48.908;9.140;2022-12-13T09:10:38;13.63;;;9.00;;
22983;SDS011;11658;48.908;9.140;2022-12-13T09:13:03;14.07;;;9.77;;
22983;SDS011;11658;48.908;9.140;2022-12-13T09:15:30;14.33;;;9.13;;
22983;SDS011;11658;48.908;9.140;2022-12-13T09:17:56;12.70;;;9.03;;
22983;SDS011;11658;48.908;9.140;2022-12-13T09:20:22;15.93;;;9.33;;
22983;SDS011;11658;48.908;9.140;2022-12-13T09:22:48;14.10;;;9.03;;
22983;SDS011;11658;48.908;9.140;2022-12-13T09:25:14;18.77;;;9.07;;
22983;SDS011;11658;48.908;9.140;2022-12-13T09:27:41;14.77;;;9.63;;
22983;SDS011;11658;48.908;9.140;2022-12-13T09:30:07;13.13;;;8.80;;
22983;SDS011;11658;48.908;9.140;2022-12-13T09:32:37;14.03;;;9.07;;
22983;SDS011;11658;48.908;9.140;2022-12-13T09:35:07;13.53;;;9.23;;
22983;SDS011;11658;48.908;9.140;2022-12-13T09:37:33;15.83;;;9.17;;
22983;SDS011;11658;48.908;9.140;2022-12-13T09:39:58;12.47;;;8.27;;
22983;SDS011;11658;48.908;9.140;2022-12-13T09:42:25;12.47;;;8.90;;
22983;SDS011;11658;48.908;9.140;2022-12-13T09:44:53;15.63;;;9.20;;
22983;SDS011;11658;48.908;9.140;2022-12-13T09:47:25;14.00;;;8.10;;
22983;SDS011;11658;48.908;9.140;2022-12-13T09:49:58;12.90;;;8.87;;
22983;SDS011;11658;48.908;9.140;2022-12-13T09:52:29;11.97;;;8.60;;
22983;SDS011;11658;48.908;9.140;2022-12-13T09:55:03;13.80;;;9.20;;
22983;SDS011;11658;48.908;9.140;2022-12-13T09:57:44;13.27;;;9.00;;
22983;SDS011;11658;48.908;9.140;2022-12-13T10:00:12;11.80;;;8.70;;
22983;SDS011;11658;48.908;9.140;2022-12-13T10:08:00;13.80;;;7.83;;
22983;SDS011;11658;48.908;9.140;2022-12-13T10:10:39;11.77;;;8.00;;
22983;SDS011;11658;48.908;9.140;2022-12-13T10:16:03;11.30;;;8.00;;
22983;SDS011;11658;48.908;9.140;2022-12-13T10:18:34;12.17;;;7.93;;
22983;SDS011;11658;48.908;9.140;2022-12-13T10:21:02;12.53;;;8.10;;
22983;SDS011;11658;48.908;9.140;2022-12-13T10:23:39;14.43;;;8.40;;
22983;SDS011;11658;48.908;9.140;2022-12-13T10:26:10;11.00;;;7.37;;
22983;SDS011;11658;48.908;9.140;2022-12-13T10:28:37;11.70;;;7.67;;
22983;SDS011;11658;48.908;9.140;2022-12-13T10:31:04;11.57;;;7.80;;
22983;SDS011;11658;48.908;9.140;2022-12-13T10:33:36;14.83;;;7.77;;
22983;SDS011;11658;48.908;9.140;2022-12-13T10:36:13;12.93;;;8.20;;
22983;SDS011;11658;48.908;9.140;2022-12-13T10:38:53;12.93;;;8.40;;
22983;SDS011;11658;48.908;9.140;2022-12-13T10:44:20;12.50;;;7.67;;
22983;SDS011;11658;48.908;9.140;2022-12-13T10:49:16;12.07;;;7.70;;
22983;SDS011;11658;48.908;9.140;2022-12-13T10:51:47;12.03;;;7.53;;
22983;SDS011;11658;48.908;9.140;2022-12-13T10:54:16;11.70;;;8.10;;
22983;SDS011;11658;48.908;9.140;2022-12-13T10:56:50;10.17;;;7.53;;
22983;SDS011;11658;48.908;9.140;2022-12-13T10:59:33;12.23;;;7.90;;
22983;SDS011;11658;48.908;9.140;2022-12-13T11:02:23;15.93;;;7.93;;
22983;SDS011;11658;48.908;9.140;2022-12-13T11:04:54;12.57;;;8.00;;
22983;SDS011;11658;48.908;9.140;2022-12-13T11:07:29;11.73;;;7.33;;
22983;SDS011;11658;48.908;9.140;2022-12-13T11:09:56;13.23;;;7.83;;
22983;SDS011;11658;48.908;9.140;2022-12-13T11:12:24;10.50;;;8.43;;
22983;SDS011;11658;48.908;9.140;2022-12-13T11:14:54;13.67;;;7.80;;
22983;SDS011;11658;48.908;9.140;2022-12-13T11:17:22;11.20;;;7.07;;
22983;SDS011;11658;48.908;9.140;2022-12-13T11:19:51;12.53;;;8.10;;
22983;SDS011;11658;48.908;9.140;2022-12-13T11:22:21;11.80;;;7.20;;
22983;SDS011;11658;48.908;9.140;2022-12-13T11:25:25;10.90;;;7.50;;
22983;SDS011;11658;48.908;9.140;2022-12-13T11:33:16;13.07;;;7.33;;
22983;SDS011;11658;48.908;9.140;2022-12-13T11:38:35;12.80;;;7.23;;
22983;SDS011;11658;48.908;9.140;2022-12-13T11:41:11;14.40;;;7.57;;
22983;SDS011;11658;48.908;9.140;2022-12-13T11:43:49;9.93;;;6.73;;
22983;SDS011;11658;48.908;9.140;2022-12-13T11:46:28;15.47;;;7.40;;
22983;SDS011;11658;48.908;9.140;2022-12-13T11:49:26;10.57;;;7.10;;
22983;SDS011;11658;48.908;9.140;2022-12-13T11:52:17;12.03;;;7.27;;
22983;SDS011;11658;48.908;9.140;2022-12-13T11:55:04;10.30;;;7.17;;
22983;SDS011;11658;48.908;9.140;2022-12-13T12:06:05;9.70;;;6.63;;
22983;SDS011;11658;48.908;9.140;2022-12-13T12:08:49;11.00;;;7.20;;
22983;SDS011;11658;48.908;9.140;2022-12-13T12:14:22;10.67;;;7.50;;
22983;SDS011;11658;48.908;9.140;2022-12-13T12:16:50;9.73;;;6.93;;
22983;SDS011;11658;48.908;9.140;2022-12-13T12:19:17;11.30;;;7.40;;
22983;SDS011;11658;48.908;9.140;2022-12-13T12:30:03;13.07;;;6.97;;
22983;SDS011;11658;48.908;9.140;2022-12-13T12:43:53;10.90;;;6.80;;
22983;SDS011;11658;48.908;9.140;2022-12-13T12:49:23;10.90;;;7.33;;
22983;SDS011;11658;48.908;9.140;2022-12-13T13:00:25;10.40;;;7.03;;
22983;SDS011;11658;48.908;9.140;2022-12-13T13:03:15;14.60;;;7.10;;
22983;SDS011;11658;48.908;9.140;2022-12-13T13:05:46;11.20;;;7.07;;
22983;SDS011;11658;48.908;9.140;2022-12-13T13:10:54;10.73;;;7.33;;
22983;SDS011;11658;48.908;9.140;2022-12-13T13:15:59;10.03;;;7.33;;
22983;SDS011;11658;48.908;9.140;2022-12-13T13:19:09;10.30;;;6.93;;
22983;SDS011;11658;48.908;9.140;2022-12-13T13:23:47;10.23;;;7.17;;
22983;SDS011;11658;48.908;9.140;2022-12-13T13:26:29;9.47;;;6.77;;
22983;SDS011;11658;48.908;9.140;2022-12-13T13:34:42;10.33;;;7.23;;
22983;SDS011;11658;48.908;9.140;2022-12-13T13:48:23;10.73;;;7.03;;
22983;SDS011;11658;48.908;9.140;2022-12-13T13:54:08;10.43;;;7.03;;
22983;SDS011;11658;48.908;9.140;2022-12-13T14:11:36;9.30;;;6.83;;
22983;SDS011;11658;48.908;9.140;2022-12-13T14:23:05;11.70;;;7.10;;
22983;SDS011;11658;48.908;9.140;2022-12-13T14:28:57;10.93;;;6.53;;
22983;SDS011;11658;48.908;9.140;2022-12-13T14:31:42;11.33;;;7.60;;
22983;SDS011;11658;48.908;9.140;2022-12-13T14:36:52;10.60;;;6.50;;
22983;SDS011;11658;48.908;9.140;2022-12-13T14:39:23;11.57;;;7.00;;
22983;SDS011;11658;48.908;9.140;2022-12-13T14:41:54;12.40;;;8.27;;
22983;SDS011;11658;48.908;9.140;2022-12-13T14:44:27;13.73;;;6.97;;
22983;SDS011;11658;48.908;9.140;2022-12-13T14:47:13;11.20;;;7.57;;
22983;SDS011;11658;48.908;9.140;2022-12-13T14:49:39;10.33;;;7.10;;
22983;SDS011;11658;48.908;9.140;2022-12-13T14:54:50;12.27;;;7.23;;
22983;SDS011;11658;48.908;9.140;2022-12-13T14:57:30;11.17;;;7.17;;
22983;SDS011;11658;48.908;9.140;2022-12-13T14:59:58;9.93;;;7.07;;
22983;SDS011;11658;48.908;9.140;2022-12-13T15:02:48;14.00;;;7.37;;
22983;SDS011;11658;48.908;9.140;2022-12-13T15:05:22;13.10;;;8.30;;
22983;SDS011;11658;48.908;9.140;2022-12-13T15:07:50;12.90;;;7.13;;
22983;SDS011;11658;48.908;9.140;2022-12-13T15:10:21;10.73;;;7.43;;
22983;SDS011;11658;48.908;9.140;2022-12-13T15:13:13;10.10;;;6.80;;
22983;SDS011;11658;48.908;9.140;2022-12-13T15:15:56;10.00;;;6.40;;
22983;SDS011;11658;48.908;9.140;2022-12-13T15:18:26;9.57;;;6.60;;
22983;SDS011;11658;48.908;9.140;2022-12-13T15:20:53;14.90;;;7.97;;
22983;SDS011;11658;48.908;9.140;2022-12-13T15:25:56;10.23;;;7.23;;
22983;SDS011;11658;48.908;9.140;2022-12-13T15:28:25;11.10;;;7.00;;
22983;SDS011;11658;48.908;9.140;2022-12-13T15:30:53;10.23;;;6.80;;
22983;SDS011;11658;48.908;9.140;2022-12-13T15:33:22;8.73;;;6.50;;
22983;SDS011;11658;48.908;9.140;2022-12-13T15:41:33;11.83;;;6.30;;
22983;SDS011;11658;48.908;9.140;2022-12-13T15:44:43;9.97;;;6.03;;
22983;SDS011;11658;48.908;9.140;2022-12-13T15:46:51;9.80;;;6.37;;
22983;SDS011;11658;48.908;9.140;2022-12-13T15:49:35;8.90;;;6.27;;
22983;SDS011;11658;48.908;9.140;2022-12-13T15:54:40;13.33;;;6.50;;
22983;SDS011;11658;48.908;9.140;2022-12-13T15:57:21;12.07;;;6.87;;
22983;SDS011;11658;48.908;9.140;2022-12-13T15:59:59;10.83;;;6.03;;
22983;SDS011;11658;48.908;9.140;2022-12-13T16:02:28;9.30;;;6.03;;
22983;SDS011;11658;48.908;9.140;2022-12-13T16:05:03;10.27;;;6.47;;
22983;SDS011;11658;48.908;9.140;2022-12-13T16:07:34;8.67;;;6.20;;
22983;SDS011;11658;48.908;9.140;2022-12-13T16:10:02;9.10;;;6.60;;
22983;SDS011;11658;48.908;9.140;2022-12-13T16:12:41;8.90;;;6.50;;
22983;SDS011;11658;48.908;9.140;2022-12-13T16:15:13;10.50;;;6.90;;
22983;SDS011;11658;48.908;9.140;2022-12-13T16:17:48;11.93;;;7.20;;
22983;SDS011;11658;48.908;9.140;2022-12-13T16:20:16;12.40;;;7.47;;
22983;SDS011;11658;48.908;9.140;2022-12-13T16:22:43;12.40;;;7.93;;
22983;SDS011;11658;48.908;9.140;2022-12-13T16:25:14;11.47;;;6.73;;
22983;SDS011;11658;48.908;9.140;2022-12-13T16:27:42;12.17;;;6.87;;
22983;SDS011;11658;48.908;9.140;2022-12-13T16:30:10;12.67;;;7.00;;
22983;SDS011;11658;48.908;9.140;2022-12-13T16:32:36;12.43;;;5.93;;
22983;SDS011;11658;48.908;9.140;2022-12-13T16:35:02;11.00;;;6.77;;
22983;SDS011;11658;48.908;9.140;2022-12-13T16:37:28;11.00;;;6.30;;
22983;SDS011;11658;48.908;9.140;2022-12-13T16:39:53;9.63;;;6.33;;
22983;SDS011;11658;48.908;9.140;2022-12-13T16:42:19;10.40;;;6.00;;
22983;SDS011;11658;48.908;9.140;2022-12-13T16:44:45;8.80;;;5.90;;
22983;SDS011;11658;48.908;9.140;2022-12-13T16:47:11;8.37;;;6.53;;
22983;SDS011;11658;48.908;9.140;2022-12-13T16:49:37;9.63;;;6.70;;
22983;SDS011;11658;48.908;9.140;2022-12-13T16:52:03;9.27;;;6.23;;
22983;SDS011;11658;48.908;9.140;2022-12-13T16:54:31;15.17;;;7.93;;
22983;SDS011;11658;48.908;9.140;2022-12-13T16:56:57;12.70;;;6.57;;
22983;SDS011;11658;48.908;9.140;2022-12-13T16:59:23;7.50;;;5.67;;
22983;SDS011;11658;48.908;9.140;2022-12-13T17:01:50;11.30;;;7.03;;
22983;SDS011;11658;48.908;9.140;2022-12-13T17:04:20;9.47;;;7.40;;
22983;SDS011;11658;48.908;9.140;2022-12-13T17:06:50;9.63;;;6.23;;
22983;SDS011;11658;48.908;9.140;2022-12-13T17:09:16;10.83;;;6.70;;
22983;SDS011;11658;48.908;9.140;2022-12-13T17:11:43;10.37;;;6.20;;
22983;SDS011;11658;48.908;9.140;2022-12-13T17:14:09;10.47;;;6.20;;
22983;SDS011;11658;48.908;9.140;2022-12-13T17:16:34;9.53;;;6.40;;
22983;SDS011;11658;48.908;9.140;2022-12-13T17:19:00;9.03;;;6.30;;
22983;SDS011;11658;48.908;9.140;2022-12-13T17:21:26;8.63;;;6.03;;
22983;SDS011;11658;48.908;9.140;2022-12-13T17:23:57;8.73;;;6.13;;
22983;SDS011;11658;48.908;9.140;2022-12-13T17:26:24;9.47;;;6.37;;
22983;SDS011;11658;48.908;9.140;2022-12-13T17:28:51;9.57;;;6.10;;
22983;SDS011;11658;48.908;9.140;2022-12-13T17:31:17;9.03;;;6.83;;
22983;SDS011;11658;48.908;9.140;2022-12-13T17:33:44;9.30;;;6.57;;
22983;SDS011;11658;48.908;9.140;2022-12-13T17:36:10;9.30;;;6.83;;
22983;SDS011;11658;48.908;9.140;2022-12-13T17:38:39;11.77;;;7.07;;
22983;SDS011;11658;48.908;9.140;2022-12-13T17:41:07;11.10;;;6.83;;
22983;SDS011;11658;48.908;9.140;2022-12-13T17:43:33;12.03;;;7.60;;
22983;SDS011;11658;48.908;9.140;2022-12-13T17:46:02;10.73;;;6.87;;
22983;SDS011;11658;48.908;9.140;2022-12-13T17:48:34;11.47;;;8.17;;
22983;SDS011;11658;48.908;9.140;2022-12-13T17:51:00;8.83;;;7.00;;
22983;SDS011;11658;48.908;9.140;2022-12-13T17:53:26;13.87;;;8.13;;
22983;SDS011;11658;48.908;9.140;2022-12-13T17:55:58;11.50;;;7.97;;
22983;SDS011;11658;48.908;9.140;2022-12-13T17:58:26;12.77;;;8.50;;
22983;SDS011;11658;48.908;9.140;2022-12-13T18:00:53;13.13;;;9.03;;
22983;SDS011;11658;48.908;9.140;2022-12-13T18:03:19;14.13;;;8.73;;
22983;SDS011;11658;48.908;9.140;2022-12-13T18:05:44;14.23;;;8.73;;
22983;SDS011;11658;48.908;9.140;2022-12-13T18:08:20;11.57;;;7.60;;
22983;SDS011;11658;48.908;9.140;2022-12-13T18:10:55;13.80;;;8.97;;
22983;SDS011;11658;48.908;9.140;2022-12-13T18:13:22;14.53;;;9.73;;
22983;SDS011;11658;48.908;9.140;2022-12-13T18:15:50;14.47;;;8.80;;
22983;SDS011;11658;48.908;9.140;2022-12-13T18:18:16;13.33;;;8.43;;
22983;SDS011;11658;48.908;9.140;2022-12-13T18:20:42;11.63;;;7.60;;
22983;SDS011;11658;48.908;9.140;2022-12-13T18:23:08;10.23;;;7.40;;
22983;SDS011;11658;48.908;9.140;2022-12-13T18:25:35;11.10;;;6.83;;
22983;SDS011;11658;48.908;9.140;2022-12-13T18:28:01;10.33;;;7.87;;
22983;SDS011;11658;48.908;9.140;2022-12-13T18:30:27;10.87;;;6.97;;
22983;SDS011;11658;48.908;9.140;2022-12-13T18:32:55;10.80;;;7.23;;
22983;SDS011;11658;48.908;9.140;2022-12-13T18:35:20;12.20;;;7.77;;
22983;SDS011;11658;48.908;9.140;2022-12-13T18:37:46;11.43;;;7.80;;
22983;SDS011;11658;48.908;9.140;2022-12-13T18:40:12;12.47;;;7.30;;
22983;SDS011;11658;48.908;9.140;2022-12-13T18:42:37;11.03;;;7.20;;
22983;SDS011;11658;48.908;9.140;2022-12-13T18:45:03;14.80;;;8.40;;
22983;SDS011;11658;48.908;9.140;2022-12-13T18:47:29;10.10;;;6.77;;
22983;SDS011;11658;48.908;9.140;2022-12-13T18:49:55;16.23;;;9.07;;
22983;SDS011;11658;48.908;9.140;2022-12-13T18:52:20;17.50;;;9.60;;
22983;SDS011;11658;48.908;9.140;2022-12-13T18:54:48;20.53;;;11.93;;
22983;SDS011;11658;48.908;9.140;2022-12-13T18:57:15;12.87;;;8.03;;
22983;SDS011;11658;48.908;9.140;2022-12-13T18:59:41;13.10;;;7.17;;
22983;SDS011;11658;48.908;9.140;2022-12-13T19:02:09;9.37;;;6.73;;
22983;SDS011;11658;48.908;9.140;2022-12-13T19:04:36;10.30;;;6.70;;
22983;SDS011;11658;48.908;9.140;2022-12-13T19:07:02;12.50;;;7.47;;
22983;SDS011;11658;48.908;9.140;2022-12-13T19:09:28;9.50;;;6.70;;
22983;SDS011;11658;48.908;9.140;2022-12-13T19:11:53;11.20;;;7.33;;
22983;SDS011;11658;48.908;9.140;2022-12-13T19:14:19;12.17;;;8.63;;
22983;SDS011;11658;48.908;9.140;2022-12-13T19:16:44;10.50;;;6.83;;
22983;SDS011;11658;48.908;9.140;2022-12-13T19:19:10;12.63;;;7.57;;
22983;SDS011;11658;48.908;9.140;2022-12-13T19:21:36;10.97;;;7.90;;
22983;SDS011;11658;48.908;9.140;2022-12-13T19:24:01;9.27;;;6.90;;
22983;SDS011;11658;48.908;9.140;2022-12-13T19:26:28;11.23;;;7.50;;
22983;SDS011;11658;48.908;9.140;2022-12-13T19:28:55;13.90;;;8.47;;
22983;SDS011;11658;48.908;9.140;2022-12-13T19:31:22;14.03;;;8.63;;
22983;SDS011;11658;48.908;9.140;2022-12-13T19:33:48;9.20;;;6.90;;
22983;SDS011;11658;48.908;9.140;2022-12-13T19:36:14;11.70;;;7.20;;
22983;SDS011;11658;48.908;9.140;2022-12-13T19:38:39;8.33;;;6.67;;
22983;SDS011;11658;48.908;9.140;2022-12-13T19:41:09;10.17;;;6.57;;
22983;SDS011;11658;48.908;9.140;2022-12-13T19:43:38;12.80;;;7.03;;
22983;SDS011;11658;48.908;9.140;2022-12-13T19:46:04;10.00;;;6.70;;
22983;SDS011;11658;48.908;9.140;2022-12-13T19:48:30;10.63;;;6.57;;
22983;SDS011;11658;48.908;9.140;2022-12-13T19:51:04;10.93;;;6.23;;
22983;SDS011;11658;48.908;9.140;2022-12-13T19:53:31;11.93;;;6.60;;
22983;SDS011;11658;48.908;9.140;2022-12-13T19:55:58;10.33;;;6.40;;
22983;SDS011;11658;48.908;9.140;2022-12-13T19:58:24;10.50;;;6.30;;
22983;SDS011;11658;48.908;9.140;2022-12-13T20:00:50;8.10;;;6.50;;
22983;SDS011;11658;48.908;9.140;2022-12-13T20:03:16;9.33;;;5.90;;
22983;SDS011;11658;48.908;9.140;2022-12-13T20:05:42;9.03;;;6.63;;
22983;SDS011;11658;48.908;9.140;2022-12-13T20:08:08;9.43;;;5.70;;
22983;SDS011;11658;48.908;9.140;2022-12-13T20:10:35;8.20;;;5.87;;
22983;SDS011;11658;48.908;9.140;2022-12-13T20:13:02;9.47;;;6.73;;
22983;SDS011;11658;48.908;9.140;2022-12-13T20:15:28;9.10;;;6.50;;
22983;SDS011;11658;48.908;9.140;2022-12-13T20:17:54;6.90;;;5.87;;
22983;SDS011;11658;48.908;9.140;2022-12-13T20:20:20;11.33;;;8.30;;
22983;SDS011;11658;48.908;9.140;2022-12-13T20:22:46;10.50;;;8.00;;
22983;SDS011;11658;48.908;9.140;2022-12-13T20:25:12;8.23;;;6.30;;
22983;SDS011;11658;48.908;9.140;2022-12-13T20:27:38;9.10;;;6.73;;
22983;SDS011;11658;48.908;9.140;2022-12-13T20:30:04;9.43;;;6.83;;
22983;SDS011;11658;48.908;9.140;2022-12-13T20:32:31;10.23;;;6.57;;
22983;SDS011;11658;48.908;9.140;2022-12-13T20:34:57;10.77;;;6.80;;
22983;SDS011;11658;48.908;9.140;2022-12-13T20:37:22;10.23;;;6.63;;
22983;SDS011;11658;48.908;9.140;2022-12-13T20:39:48;10.53;;;6.20;;
22983;SDS011;11658;48.908;9.140;2022-12-13T20:42:14;8.93;;;6.27;;
22983;SDS011;11658;48.908;9.140;2022-12-13T20:44:39;9.10;;;6.57;;
22983;SDS011;11658;48.908;9.140;2022-12-13T20:47:05;8.67;;;6.53;;
22983;SDS011;11658;48.908;9.140;2022-12-13T20:49:30;8.77;;;6.57;;
22983;SDS011;11658;48.908;9.140;2022-12-13T20:51:56;6.50;;;5.87;;
22983;SDS011;11658;48.908;9.140;2022-12-13T20:54:22;10.40;;;6.37;;
22983;SDS011;11658;48.908;9.140;2022-12-13T20:56:47;18.37;;;6.37;;
22983;SDS011;11658;48.908;9.140;2022-12-13T20:59:13;9.27;;;6.63;;